Казин, остров

Карта отелей и гостиниц, располагающихся рядом с аэропортом Казин, остров :

Казин, остров Марий Эл 56° 8' 40.4988" N, 47° 36' 41.8212" E
Код аэродрома ИКАО
ZA57
Код аэродрома RU
ЗА57
Координаты
N56.14458° E047.61162°
Превышение над уровнем моря
60
Основная полоса
07/25
Курс магнитный
065/245
Длина основной ВПП
700
Ширина основной ВПП
50
Покрытие основной ВПП
Нетвёрдое (грунт)
Освещение ВПП
Нет
Тип: 
Аэродром
Класс аэродрома: 
Принадлежность: 
АОН
Статус: 
Недействующий
Сайт: 
E-mail аэродрома: 
Страна: 
Россия
Регион: 
Марий Эл
Город: 
Дополнительная информация: 
Проект пилота Лосеева Э.

Найти трансфер

С помощью этой формы Вы можете найти трансфер из аэропорта Казин, остров в город, аэропорт или вокзал:

Карта места

Javascript is required to view this map.

Погода в аэропортах:

Авиационная погода в Челябинске

Регион: 
Погода METAR: 
USCC 271200Z 12008MPS 1500 1400W R09/1500D SN BKN007 M18/M21 Q1014 R09/490345 NOSIG RMK QFE740
Время наблюдения
2021-02-27T12:00:00Z
Температура C
-18.0
Точка росы
-21.0
Направление ветра
120
Скорость ветра (узлы)
16
Метео видимость
0.93
Явления погоды
SN
Условия полета
LIFR
Аэропорт подробнее: 

Авиационная погода в Волгограде

Регион: 
Погода METAR: 
URWW 271200Z 27007MPS 3200 BR OVC009 04/04 Q1007 R24/290050 NOSIG RMK OBST OBSC
Время наблюдения
2021-02-27T12:00:00Z
Температура C
4.0
Точка росы
4.0
Направление ветра
270
Скорость ветра (узлы)
14
Метео видимость
1.99
Явления погоды
BR
Условия полета
IFR
Аэропорт подробнее: 

Авиационная погода в Актобе

Регион: 
Погода METAR: 
UATT 271200Z 19010MPS 7000 -SN BLSN OVC009 M05/M07 Q1005 R12/451045 NOSIG RMK QFE734/0979
Время наблюдения
2021-02-27T12:00:00Z
Температура C
-5.0
Точка росы
-7.0
Направление ветра
190
Скорость ветра (узлы)
19
Метео видимость
4.35
Явления погоды
-SN BLSN
Условия полета
IFR
Аэропорт подробнее: 

Авиационная погода в Йоэнсуу

Регион: 
Погода METAR: 
EFJO 271150Z AUTO 34006KT 310V010 9999 -SHRA BKN021 01/M02 Q1016
Время наблюдения
2021-02-27T11:50:00Z
Температура C
1.0
Точка росы
-2.0
Направление ветра
340
Скорость ветра (узлы)
6
Метео видимость
6.21
Явления погоды
-SHRA
Условия полета
MVFR